sensor_id;sensor_type;location;lat;lon;timestamp;P1;durP1;ratioP1;P2;durP2;ratioP2
46931;SDS011;32670;51.464;11.964;2023-02-01T00:02:24;3.47;;;3.17;;
46931;SDS011;32670;51.464;11.964;2023-02-01T00:04:49;3.27;;;3.07;;
46931;SDS011;32670;51.464;11.964;2023-02-01T00:07:15;3.40;;;3.10;;
46931;SDS011;32670;51.464;11.964;2023-02-01T00:09:40;3.33;;;3.03;;
46931;SDS011;32670;51.464;11.964;2023-02-01T00:12:05;2.93;;;2.73;;
46931;SDS011;32670;51.464;11.964;2023-02-01T00:14:31;3.80;;;3.50;;
46931;SDS011;32670;51.464;11.964;2023-02-01T00:17:03;3.47;;;3.10;;
46931;SDS011;32670;51.464;11.964;2023-02-01T00:19:32;3.27;;;3.03;;
46931;SDS011;32670;51.464;11.964;2023-02-01T00:21:58;3.10;;;2.90;;
46931;SDS011;32670;51.464;11.964;2023-02-01T00:24:24;3.40;;;3.10;;
46931;SDS011;32670;51.464;11.964;2023-02-01T00:26:49;3.47;;;3.13;;
46931;SDS011;32670;51.464;11.964;2023-02-01T00:29:15;3.20;;;2.90;;
46931;SDS011;32670;51.464;11.964;2023-02-01T00:31:43;3.43;;;2.90;;
46931;SDS011;32670;51.464;11.964;2023-02-01T00:34:10;2.90;;;2.70;;
46931;SDS011;32670;51.464;11.964;2023-02-01T00:36:38;3.10;;;2.80;;
46931;SDS011;32670;51.464;11.964;2023-02-01T00:39:03;2.97;;;2.77;;
46931;SDS011;32670;51.464;11.964;2023-02-01T00:41:29;3.20;;;2.90;;
46931;SDS011;32670;51.464;11.964;2023-02-01T00:43:54;3.10;;;2.80;;
46931;SDS011;32670;51.464;11.964;2023-02-01T00:46:20;3.33;;;2.77;;
46931;SDS011;32670;51.464;11.964;2023-02-01T00:48:46;2.90;;;2.70;;
46931;SDS011;32670;51.464;11.964;2023-02-01T00:51:13;3.20;;;2.90;;
46931;SDS011;32670;51.464;11.964;2023-02-01T00:53:41;4.17;;;3.10;;
46931;SDS011;32670;51.464;11.964;2023-02-01T00:56:07;2.90;;;2.70;;
46931;SDS011;32670;51.464;11.964;2023-02-01T00:58:33;3.00;;;2.77;;
46931;SDS011;32670;51.464;11.964;2023-02-01T01:01:09;3.13;;;2.90;;
46931;SDS011;32670;51.464;11.964;2023-02-01T01:03:38;3.17;;;2.97;;
46931;SDS011;32670;51.464;11.964;2023-02-01T01:06:07;2.93;;;2.73;;
46931;SDS011;32670;51.464;11.964;2023-02-01T01:08:34;3.20;;;2.90;;
46931;SDS011;32670;51.464;11.964;2023-02-01T01:11:04;2.63;;;2.43;;
46931;SDS011;32670;51.464;11.964;2023-02-01T01:13:30;2.90;;;2.70;;
46931;SDS011;32670;51.464;11.964;2023-02-01T01:15:56;4.23;;;2.90;;
46931;SDS011;32670;51.464;11.964;2023-02-01T01:18:26;2.97;;;2.77;;
46931;SDS011;32670;51.464;11.964;2023-02-01T01:20:51;3.03;;;2.83;;
46931;SDS011;32670;51.464;11.964;2023-02-01T01:23:17;2.80;;;2.60;;
46931;SDS011;32670;51.464;11.964;2023-02-01T01:25:42;3.20;;;3.00;;
46931;SDS011;32670;51.464;11.964;2023-02-01T01:28:08;3.17;;;2.97;;
46931;SDS011;32670;51.464;11.964;2023-02-01T01:30:34;3.27;;;2.97;;
46931;SDS011;32670;51.464;11.964;2023-02-01T01:33:00;3.03;;;2.80;;
46931;SDS011;32670;51.464;11.964;2023-02-01T01:35:26;3.43;;;3.13;;
46931;SDS011;32670;51.464;11.964;2023-02-01T01:37:54;2.80;;;2.60;;
46931;SDS011;32670;51.464;11.964;2023-02-01T01:40:19;2.93;;;2.73;;
46931;SDS011;32670;51.464;11.964;2023-02-01T01:42:45;2.90;;;2.70;;
46931;SDS011;32670;51.464;11.964;2023-02-01T01:45:19;2.70;;;2.50;;
46931;SDS011;32670;51.464;11.964;2023-02-01T01:47:48;3.27;;;2.97;;
46931;SDS011;32670;51.464;11.964;2023-02-01T01:50:21;2.80;;;2.60;;
46931;SDS011;32670;51.464;11.964;2023-02-01T01:52:51;3.20;;;2.90;;
46931;SDS011;32670;51.464;11.964;2023-02-01T01:55:20;2.87;;;2.67;;
46931;SDS011;32670;51.464;11.964;2023-02-01T01:57:55;3.07;;;2.60;;
46931;SDS011;32670;51.464;11.964;2023-02-01T02:00:23;2.67;;;2.47;;
46931;SDS011;32670;51.464;11.964;2023-02-01T02:02:52;2.83;;;2.63;;
46931;SDS011;32670;51.464;11.964;2023-02-01T02:05:21;2.93;;;2.73;;
46931;SDS011;32670;51.464;11.964;2023-02-01T02:07:48;2.77;;;2.57;;
46931;SDS011;32670;51.464;11.964;2023-02-01T02:10:16;2.93;;;2.70;;
46931;SDS011;32670;51.464;11.964;2023-02-01T02:12:42;3.10;;;2.90;;
46931;SDS011;32670;51.464;11.964;2023-02-01T02:15:11;2.70;;;2.50;;
46931;SDS011;32670;51.464;11.964;2023-02-01T02:26:16;5.10;;;2.57;;
46931;SDS011;32670;51.464;11.964;2023-02-01T02:29:06;2.77;;;2.57;;
46931;SDS011;32670;51.464;11.964;2023-02-01T02:31:58;2.93;;;2.70;;
46931;SDS011;32670;51.464;11.964;2023-02-01T02:34:50;5.00;;;3.00;;
46931;SDS011;32670;51.464;11.964;2023-02-01T02:37:35;2.80;;;2.60;;
46931;SDS011;32670;51.464;11.964;2023-02-01T02:42:49;2.60;;;2.40;;
46931;SDS011;32670;51.464;11.964;2023-02-01T02:45:41;4.27;;;2.40;;
46931;SDS011;32670;51.464;11.964;2023-02-01T02:48:36;2.67;;;2.47;;
46931;SDS011;32670;51.464;11.964;2023-02-01T02:51:09;2.47;;;2.27;;
46931;SDS011;32670;51.464;11.964;2023-02-01T02:54:07;2.90;;;2.70;;
46931;SDS011;32670;51.464;11.964;2023-02-01T02:57:02;2.43;;;2.23;;
46931;SDS011;32670;51.464;11.964;2023-02-01T02:59:49;2.77;;;2.40;;
46931;SDS011;32670;51.464;11.964;2023-02-01T03:02:34;2.80;;;2.60;;
46931;SDS011;32670;51.464;11.964;2023-02-01T03:05:20;2.60;;;2.40;;
46931;SDS011;32670;51.464;11.964;2023-02-01T03:07:48;3.77;;;2.67;;
46931;SDS011;32670;51.464;11.964;2023-02-01T03:10:42;3.07;;;2.70;;
46931;SDS011;32670;51.464;11.964;2023-02-01T03:13:26;2.60;;;2.40;;
46931;SDS011;32670;51.464;11.964;2023-02-01T03:18:46;2.83;;;2.53;;
46931;SDS011;32670;51.464;11.964;2023-02-01T03:21:19;2.47;;;2.27;;
46931;SDS011;32670;51.464;11.964;2023-02-01T03:23:49;2.43;;;2.23;;
46931;SDS011;32670;51.464;11.964;2023-02-01T03:26:18;2.80;;;2.60;;
46931;SDS011;32670;51.464;11.964;2023-02-01T03:28:48;2.90;;;2.63;;
46931;SDS011;32670;51.464;11.964;2023-02-01T03:31:19;2.87;;;2.67;;
46931;SDS011;32670;51.464;11.964;2023-02-01T03:33:45;3.77;;;2.40;;
46931;SDS011;32670;51.464;11.964;2023-02-01T03:36:20;2.43;;;2.23;;
46931;SDS011;32670;51.464;11.964;2023-02-01T03:39:11;2.80;;;2.50;;
46931;SDS011;32670;51.464;11.964;2023-02-01T03:41:45;3.00;;;2.70;;
46931;SDS011;32670;51.464;11.964;2023-02-01T03:44:29;3.37;;;2.73;;
46931;SDS011;32670;51.464;11.964;2023-02-01T03:47:08;2.63;;;2.43;;
46931;SDS011;32670;51.464;11.964;2023-02-01T03:49:44;2.40;;;2.20;;
46931;SDS011;32670;51.464;11.964;2023-02-01T03:52:24;2.53;;;2.33;;
46931;SDS011;32670;51.464;11.964;2023-02-01T03:54:53;3.03;;;2.80;;
46931;SDS011;32670;51.464;11.964;2023-02-01T03:57:22;2.67;;;2.47;;
46931;SDS011;32670;51.464;11.964;2023-02-01T03:59:51;2.20;;;2.10;;
46931;SDS011;32670;51.464;11.964;2023-02-01T04:02:17;2.30;;;2.10;;
46931;SDS011;32670;51.464;11.964;2023-02-01T04:04:43;2.50;;;2.30;;
46931;SDS011;32670;51.464;11.964;2023-02-01T04:07:08;2.80;;;2.60;;
46931;SDS011;32670;51.464;11.964;2023-02-01T04:09:34;3.03;;;2.40;;
46931;SDS011;32670;51.464;11.964;2023-02-01T04:12:00;2.20;;;2.10;;
46931;SDS011;32670;51.464;11.964;2023-02-01T04:14:25;2.43;;;2.23;;
46931;SDS011;32670;51.464;11.964;2023-02-01T04:16:51;2.70;;;2.50;;
46931;SDS011;32670;51.464;11.964;2023-02-01T04:19:16;2.53;;;2.33;;
46931;SDS011;32670;51.464;11.964;2023-02-01T04:21:41;2.50;;;2.30;;
46931;SDS011;32670;51.464;11.964;2023-02-01T04:24:07;2.40;;;2.20;;
46931;SDS011;32670;51.464;11.964;2023-02-01T04:26:33;5.20;;;2.20;;
46931;SDS011;32670;51.464;11.964;2023-02-01T04:28:59;3.83;;;2.30;;
46931;SDS011;32670;51.464;11.964;2023-02-01T04:31:24;2.10;;;2.00;;
46931;SDS011;32670;51.464;11.964;2023-02-01T04:33:53;3.03;;;2.07;;
46931;SDS011;32670;51.464;11.964;2023-02-01T04:36:20;2.63;;;2.43;;
46931;SDS011;32670;51.464;11.964;2023-02-01T04:38:47;2.37;;;2.17;;
46931;SDS011;32670;51.464;11.964;2023-02-01T04:41:13;7.63;;;2.37;;
46931;SDS011;32670;51.464;11.964;2023-02-01T04:43:39;3.00;;;2.10;;
46931;SDS011;32670;51.464;11.964;2023-02-01T04:46:04;2.97;;;2.17;;
46931;SDS011;32670;51.464;11.964;2023-02-01T04:48:29;3.00;;;2.10;;
46931;SDS011;32670;51.464;11.964;2023-02-01T04:50:55;3.37;;;2.00;;
46931;SDS011;32670;51.464;11.964;2023-02-01T04:53:21;2.50;;;2.30;;
46931;SDS011;32670;51.464;11.964;2023-02-01T04:55:47;3.97;;;2.30;;
46931;SDS011;32670;51.464;11.964;2023-02-01T04:58:13;3.30;;;2.20;;
46931;SDS011;32670;51.464;11.964;2023-02-01T05:00:39;3.50;;;2.23;;
46931;SDS011;32670;51.464;11.964;2023-02-01T05:03:04;2.57;;;2.37;;
46931;SDS011;32670;51.464;11.964;2023-02-01T05:05:30;2.43;;;2.23;;
46931;SDS011;32670;51.464;11.964;2023-02-01T05:07:55;2.50;;;2.30;;
46931;SDS011;32670;51.464;11.964;2023-02-01T05:10:21;2.23;;;2.00;;
46931;SDS011;32670;51.464;11.964;2023-02-01T05:12:47;2.30;;;2.10;;
46931;SDS011;32670;51.464;11.964;2023-02-01T05:15:31;3.60;;;1.93;;
46931;SDS011;32670;51.464;11.964;2023-02-01T05:17:57;2.00;;;1.90;;
46931;SDS011;32670;51.464;11.964;2023-02-01T05:20:23;3.27;;;2.33;;
46931;SDS011;32670;51.464;11.964;2023-02-01T05:22:49;2.57;;;2.20;;
46931;SDS011;32670;51.464;11.964;2023-02-01T05:25:15;2.00;;;1.90;;
46931;SDS011;32670;51.464;11.964;2023-02-01T05:27:40;2.13;;;1.93;;
46931;SDS011;32670;51.464;11.964;2023-02-01T05:30:06;3.53;;;1.97;;
46931;SDS011;32670;51.464;11.964;2023-02-01T05:32:32;2.20;;;2.00;;
46931;SDS011;32670;51.464;11.964;2023-02-01T05:34:57;3.40;;;2.10;;
46931;SDS011;32670;51.464;11.964;2023-02-01T05:37:23;2.27;;;2.07;;
46931;SDS011;32670;51.464;11.964;2023-02-01T05:39:48;2.20;;;2.00;;
46931;SDS011;32670;51.464;11.964;2023-02-01T05:42:14;2.67;;;2.20;;
46931;SDS011;32670;51.464;11.964;2023-02-01T05:44:40;2.30;;;2.10;;
46931;SDS011;32670;51.464;11.964;2023-02-01T05:47:05;2.50;;;2.23;;
46931;SDS011;32670;51.464;11.964;2023-02-01T05:49:31;2.23;;;1.90;;
46931;SDS011;32670;51.464;11.964;2023-02-01T05:51:56;2.60;;;2.40;;
46931;SDS011;32670;51.464;11.964;2023-02-01T05:54:22;3.13;;;1.90;;
46931;SDS011;32670;51.464;11.964;2023-02-01T05:56:47;2.87;;;2.37;;
46931;SDS011;32670;51.464;11.964;2023-02-01T05:59:13;2.50;;;2.30;;
46931;SDS011;32670;51.464;11.964;2023-02-01T06:01:38;2.00;;;1.90;;
46931;SDS011;32670;51.464;11.964;2023-02-01T06:04:04;1.97;;;1.80;;
46931;SDS011;32670;51.464;11.964;2023-02-01T06:06:29;2.20;;;2.00;;
46931;SDS011;32670;51.464;11.964;2023-02-01T06:08:55;2.27;;;2.07;;
46931;SDS011;32670;51.464;11.964;2023-02-01T06:11:20;1.87;;;1.63;;
46931;SDS011;32670;51.464;11.964;2023-02-01T06:13:45;2.17;;;1.77;;
46931;SDS011;32670;51.464;11.964;2023-02-01T06:16:11;1.83;;;1.73;;
46931;SDS011;32670;51.464;11.964;2023-02-01T06:18:36;2.33;;;2.13;;
46931;SDS011;32670;51.464;11.964;2023-02-01T06:21:02;1.83;;;1.70;;
46931;SDS011;32670;51.464;11.964;2023-02-01T06:23:28;2.10;;;2.00;;
46931;SDS011;32670;51.464;11.964;2023-02-01T06:25:58;1.97;;;1.87;;
46931;SDS011;32670;51.464;11.964;2023-02-01T06:28:29;1.90;;;1.70;;
46931;SDS011;32670;51.464;11.964;2023-02-01T06:30:55;2.20;;;1.77;;
46931;SDS011;32670;51.464;11.964;2023-02-01T06:33:22;5.03;;;2.00;;
46931;SDS011;32670;51.464;11.964;2023-02-01T06:35:57;1.77;;;1.67;;
46931;SDS011;32670;51.464;11.964;2023-02-01T06:38:23;2.53;;;1.80;;
46931;SDS011;32670;51.464;11.964;2023-02-01T06:40:53;3.67;;;1.90;;
46931;SDS011;32670;51.464;11.964;2023-02-01T06:43:20;2.33;;;2.10;;
46931;SDS011;32670;51.464;11.964;2023-02-01T06:45:49;4.03;;;1.93;;
46931;SDS011;32670;51.464;11.964;2023-02-01T06:48:15;2.27;;;1.80;;
46931;SDS011;32670;51.464;11.964;2023-02-01T06:50:40;3.63;;;1.97;;
46931;SDS011;32670;51.464;11.964;2023-02-01T06:53:06;5.70;;;1.70;;
46931;SDS011;32670;51.464;11.964;2023-02-01T06:55:31;3.50;;;1.77;;
46931;SDS011;32670;51.464;11.964;2023-02-01T06:57:57;5.70;;;2.60;;
46931;SDS011;32670;51.464;11.964;2023-02-01T07:00:22;6.77;;;2.40;;
46931;SDS011;32670;51.464;11.964;2023-02-01T07:02:48;6.43;;;2.83;;
46931;SDS011;32670;51.464;11.964;2023-02-01T07:05:14;7.07;;;2.77;;
46931;SDS011;32670;51.464;11.964;2023-02-01T07:07:40;8.47;;;2.80;;
46931;SDS011;32670;51.464;11.964;2023-02-01T07:10:06;6.43;;;2.70;;
46931;SDS011;32670;51.464;11.964;2023-02-01T07:12:31;8.53;;;3.60;;
46931;SDS011;32670;51.464;11.964;2023-02-01T07:14:57;7.13;;;3.33;;
46931;SDS011;32670;51.464;11.964;2023-02-01T07:17:23;9.07;;;3.17;;
46931;SDS011;32670;51.464;11.964;2023-02-01T07:19:48;7.50;;;2.97;;
46931;SDS011;32670;51.464;11.964;2023-02-01T07:22:17;6.83;;;2.90;;
46931;SDS011;32670;51.464;11.964;2023-02-01T07:24:42;7.07;;;2.93;;
46931;SDS011;32670;51.464;11.964;2023-02-01T07:27:08;7.83;;;2.80;;
46931;SDS011;32670;51.464;11.964;2023-02-01T07:29:33;5.77;;;2.87;;
46931;SDS011;32670;51.464;11.964;2023-02-01T07:31:59;7.53;;;2.90;;
46931;SDS011;32670;51.464;11.964;2023-02-01T07:34:25;9.23;;;3.17;;
46931;SDS011;32670;51.464;11.964;2023-02-01T07:36:50;7.53;;;3.50;;
46931;SDS011;32670;51.464;11.964;2023-02-01T07:39:16;6.80;;;3.13;;
46931;SDS011;32670;51.464;11.964;2023-02-01T07:41:41;5.97;;;2.83;;
46931;SDS011;32670;51.464;11.964;2023-02-01T07:44:07;6.23;;;2.83;;
46931;SDS011;32670;51.464;11.964;2023-02-01T07:46:32;8.40;;;3.00;;
46931;SDS011;32670;51.464;11.964;2023-02-01T07:48:57;7.67;;;3.40;;
46931;SDS011;32670;51.464;11.964;2023-02-01T07:51:23;5.23;;;2.93;;
46931;SDS011;32670;51.464;11.964;2023-02-01T07:53:48;5.33;;;2.50;;
46931;SDS011;32670;51.464;11.964;2023-02-01T07:56:15;8.47;;;2.73;;
46931;SDS011;32670;51.464;11.964;2023-02-01T07:58:48;10.03;;;2.73;;
46931;SDS011;32670;51.464;11.964;2023-02-01T08:01:20;10.80;;;3.23;;
46931;SDS011;32670;51.464;11.964;2023-02-01T08:03:50;11.20;;;2.87;;
46931;SDS011;32670;51.464;11.964;2023-02-01T08:06:21;7.67;;;2.73;;
46931;SDS011;32670;51.464;11.964;2023-02-01T08:08:48;12.97;;;2.60;;
46931;SDS011;32670;51.464;11.964;2023-02-01T08:11:14;5.43;;;2.37;;
46931;SDS011;32670;51.464;11.964;2023-02-01T08:13:40;6.93;;;2.60;;
46931;SDS011;32670;51.464;11.964;2023-02-01T08:16:09;5.20;;;2.40;;
46931;SDS011;32670;51.464;11.964;2023-02-01T08:18:38;5.63;;;2.40;;
46931;SDS011;32670;51.464;11.964;2023-02-01T08:23:32;4.70;;;2.47;;
46931;SDS011;32670;51.464;11.964;2023-02-01T08:26:08;4.87;;;2.43;;
46931;SDS011;32670;51.464;11.964;2023-02-01T08:28:34;6.70;;;2.50;;
46931;SDS011;32670;51.464;11.964;2023-02-01T08:31:03;5.23;;;2.23;;
46931;SDS011;32670;51.464;11.964;2023-02-01T08:33:33;4.83;;;2.33;;
46931;SDS011;32670;51.464;11.964;2023-02-01T08:36:00;7.30;;;2.30;;
46931;SDS011;32670;51.464;11.964;2023-02-01T08:38:26;6.27;;;2.20;;
46931;SDS011;32670;51.464;11.964;2023-02-01T08:40:54;5.23;;;2.90;;
46931;SDS011;32670;51.464;11.964;2023-02-01T08:43:20;6.63;;;2.80;;
46931;SDS011;32670;51.464;11.964;2023-02-01T08:45:46;5.53;;;2.50;;
46931;SDS011;32670;51.464;11.964;2023-02-01T08:48:11;4.97;;;2.60;;
46931;SDS011;32670;51.464;11.964;2023-02-01T08:50:37;4.00;;;2.23;;
46931;SDS011;32670;51.464;11.964;2023-02-01T08:53:02;4.87;;;2.27;;
46931;SDS011;32670;51.464;11.964;2023-02-01T08:55:27;6.20;;;2.73;;
46931;SDS011;32670;51.464;11.964;2023-02-01T08:57:53;6.00;;;2.47;;
46931;SDS011;32670;51.464;11.964;2023-02-01T09:00:18;3.23;;;2.40;;
46931;SDS011;32670;51.464;11.964;2023-02-01T09:02:44;5.77;;;2.67;;
46931;SDS011;32670;51.464;11.964;2023-02-01T09:05:10;4.37;;;2.67;;
46931;SDS011;32670;51.464;11.964;2023-02-01T09:07:36;4.57;;;2.67;;
46931;SDS011;32670;51.464;11.964;2023-02-01T09:10:02;4.03;;;2.60;;
46931;SDS011;32670;51.464;11.964;2023-02-01T09:12:29;3.70;;;2.50;;
46931;SDS011;32670;51.464;11.964;2023-02-01T09:14:56;5.73;;;2.97;;
46931;SDS011;32670;51.464;11.964;2023-02-01T09:17:24;4.40;;;2.50;;
46931;SDS011;32670;51.464;11.964;2023-02-01T09:19:52;4.53;;;2.63;;
46931;SDS011;32670;51.464;11.964;2023-02-01T09:22:18;3.53;;;2.10;;
46931;SDS011;32670;51.464;11.964;2023-02-01T09:24:44;4.70;;;2.47;;
46931;SDS011;32670;51.464;11.964;2023-02-01T09:27:09;5.30;;;2.83;;
46931;SDS011;32670;51.464;11.964;2023-02-01T09:29:35;3.83;;;2.50;;
46931;SDS011;32670;51.464;11.964;2023-02-01T09:32:00;4.93;;;2.57;;
46931;SDS011;32670;51.464;11.964;2023-02-01T09:34:25;5.67;;;3.30;;
46931;SDS011;32670;51.464;11.964;2023-02-01T09:36:51;4.30;;;2.63;;
46931;SDS011;32670;51.464;11.964;2023-02-01T09:39:16;4.07;;;2.47;;
46931;SDS011;32670;51.464;11.964;2023-02-01T09:41:51;4.77;;;2.93;;
46931;SDS011;32670;51.464;11.964;2023-02-01T09:44:43;3.77;;;2.67;;
46931;SDS011;32670;51.464;11.964;2023-02-01T09:47:18;4.67;;;2.70;;
46931;SDS011;32670;51.464;11.964;2023-02-01T09:49:56;3.77;;;2.73;;
46931;SDS011;32670;51.464;11.964;2023-02-01T09:52:28;4.23;;;2.77;;
46931;SDS011;32670;51.464;11.964;2023-02-01T09:55:01;4.63;;;2.90;;
46931;SDS011;32670;51.464;11.964;2023-02-01T09:57:39;4.33;;;2.43;;
46931;SDS011;32670;51.464;11.964;2023-02-01T10:00:16;4.00;;;2.67;;
46931;SDS011;32670;51.464;11.964;2023-02-01T10:02:48;4.67;;;2.60;;
46931;SDS011;32670;51.464;11.964;2023-02-01T10:05:16;4.03;;;2.70;;
46931;SDS011;32670;51.464;11.964;2023-02-01T10:07:52;4.17;;;2.43;;
46931;SDS011;32670;51.464;11.964;2023-02-01T10:10:43;4.37;;;2.87;;
46931;SDS011;32670;51.464;11.964;2023-02-01T10:15:55;4.90;;;3.10;;
46931;SDS011;32670;51.464;11.964;2023-02-01T10:21:36;3.47;;;3.00;;
46931;SDS011;32670;51.464;11.964;2023-02-01T10:27:22;4.67;;;3.00;;
46931;SDS011;32670;51.464;11.964;2023-02-01T10:29:58;3.30;;;2.93;;
46931;SDS011;32670;51.464;11.964;2023-02-01T10:32:32;3.60;;;2.60;;
46931;SDS011;32670;51.464;11.964;2023-02-01T10:35:00;4.93;;;3.30;;
46931;SDS011;32670;51.464;11.964;2023-02-01T10:37:33;5.23;;;3.00;;
46931;SDS011;32670;51.464;11.964;2023-02-01T10:40:11;3.60;;;2.83;;
46931;SDS011;32670;51.464;11.964;2023-02-01T10:42:41;4.50;;;3.10;;
46931;SDS011;32670;51.464;11.964;2023-02-01T10:45:11;3.53;;;2.73;;
46931;SDS011;32670;51.464;11.964;2023-02-01T10:47:41;4.63;;;3.13;;
46931;SDS011;32670;51.464;11.964;2023-02-01T10:55:33;3.70;;;2.97;;
46931;SDS011;32670;51.464;11.964;2023-02-01T10:58:07;4.13;;;3.13;;
46931;SDS011;32670;51.464;11.964;2023-02-01T11:00:53;3.43;;;2.87;;
46931;SDS011;32670;51.464;11.964;2023-02-01T11:03:30;3.73;;;3.07;;
46931;SDS011;32670;51.464;11.964;2023-02-01T11:05:59;3.53;;;3.10;;
46931;SDS011;32670;51.464;11.964;2023-02-01T11:08:26;3.87;;;3.17;;
46931;SDS011;32670;51.464;11.964;2023-02-01T11:10:59;5.87;;;4.93;;
46931;SDS011;32670;51.464;11.964;2023-02-01T11:13:30;5.43;;;4.00;;
46931;SDS011;32670;51.464;11.964;2023-02-01T11:16:00;5.83;;;5.03;;
46931;SDS011;32670;51.464;11.964;2023-02-01T11:18:28;6.20;;;5.40;;
46931;SDS011;32670;51.464;11.964;2023-02-01T11:20:55;4.97;;;4.50;;
46931;SDS011;32670;51.464;11.964;2023-02-01T11:23:23;5.13;;;4.13;;
46931;SDS011;32670;51.464;11.964;2023-02-01T11:25:55;5.50;;;4.63;;
46931;SDS011;32670;51.464;11.964;2023-02-01T11:28:23;5.53;;;4.67;;
46931;SDS011;32670;51.464;11.964;2023-02-01T11:30:53;4.77;;;4.33;;
46931;SDS011;32670;51.464;11.964;2023-02-01T11:33:23;5.07;;;4.33;;
46931;SDS011;32670;51.464;11.964;2023-02-01T11:35:54;5.80;;;4.00;;
46931;SDS011;32670;51.464;11.964;2023-02-01T11:38:28;4.80;;;4.30;;
46931;SDS011;32670;51.464;11.964;2023-02-01T11:41:12;5.27;;;3.60;;
46931;SDS011;32670;51.464;11.964;2023-02-01T11:43:50;4.53;;;4.10;;
46931;SDS011;32670;51.464;11.964;2023-02-01T11:46:22;4.83;;;4.10;;
46931;SDS011;32670;51.464;11.964;2023-02-01T11:48:52;4.57;;;4.13;;
46931;SDS011;32670;51.464;11.964;2023-02-01T11:51:28;5.10;;;4.33;;
46931;SDS011;32670;51.464;11.964;2023-02-01T12:02:57;4.77;;;4.27;;
46931;SDS011;32670;51.464;11.964;2023-02-01T12:09:09;4.80;;;3.73;;
46931;SDS011;32670;51.464;11.964;2023-02-01T12:11:21;4.93;;;4.43;;
46931;SDS011;32670;51.464;11.964;2023-02-01T12:14:04;4.17;;;3.80;;
46931;SDS011;32670;51.464;11.964;2023-02-01T12:28:12;3.97;;;3.57;;
46931;SDS011;32670;51.464;11.964;2023-02-01T12:33:44;5.33;;;4.00;;
46931;SDS011;32670;51.464;11.964;2023-02-01T12:39:24;4.20;;;3.80;;
46931;SDS011;32670;51.464;11.964;2023-02-01T12:50:22;4.00;;;3.60;;
46931;SDS011;32670;51.464;11.964;2023-02-01T12:52:57;4.33;;;3.83;;
46931;SDS011;32670;51.464;11.964;2023-02-01T12:55:44;4.50;;;4.10;;
46931;SDS011;32670;51.464;11.964;2023-02-01T12:58:24;4.17;;;3.63;;
46931;SDS011;32670;51.464;11.964;2023-02-01T13:00:58;5.23;;;4.00;;
46931;SDS011;32670;51.464;11.964;2023-02-01T13:03:29;4.53;;;3.83;;
46931;SDS011;32670;51.464;11.964;2023-02-01T13:06:07;4.47;;;3.87;;
46931;SDS011;32670;51.464;11.964;2023-02-01T13:08:57;4.73;;;3.90;;
46931;SDS011;32670;51.464;11.964;2023-02-01T13:11:35;4.83;;;4.33;;
46931;SDS011;32670;51.464;11.964;2023-02-01T13:16:56;4.03;;;3.67;;
46931;SDS011;32670;51.464;11.964;2023-02-01T13:22:25;4.47;;;4.07;;
46931;SDS011;32670;51.464;11.964;2023-02-01T13:25:12;4.30;;;3.90;;
46931;SDS011;32670;51.464;11.964;2023-02-01T13:27:46;4.93;;;4.43;;
46931;SDS011;32670;51.464;11.964;2023-02-01T13:30:17;5.00;;;4.50;;
46931;SDS011;32670;51.464;11.964;2023-02-01T13:33:00;4.77;;;4.37;;
46931;SDS011;32670;51.464;11.964;2023-02-01T13:44:05;4.90;;;4.43;;
46931;SDS011;32670;51.464;11.964;2023-02-01T13:46:38;4.70;;;4.20;;
46931;SDS011;32670;51.464;11.964;2023-02-01T13:49:07;4.40;;;4.10;;
46931;SDS011;32670;51.464;11.964;2023-02-01T13:51:51;5.33;;;4.60;;
46931;SDS011;32670;51.464;11.964;2023-02-01T13:56:53;4.03;;;3.70;;
46931;SDS011;32670;51.464;11.964;2023-02-01T14:05:09;4.93;;;4.30;;
46931;SDS011;32670;51.464;11.964;2023-02-01T14:07:36;4.50;;;4.10;;
46931;SDS011;32670;51.464;11.964;2023-02-01T14:21:18;5.30;;;4.80;;
46931;SDS011;32670;51.464;11.964;2023-02-01T14:26:19;5.43;;;4.97;;
46931;SDS011;32670;51.464;11.964;2023-02-01T14:28:52;5.43;;;4.97;;
46931;SDS011;32670;51.464;11.964;2023-02-01T14:31:49;6.10;;;5.50;;
46931;SDS011;32670;51.464;11.964;2023-02-01T14:34:34;6.13;;;5.53;;
46931;SDS011;32670;51.464;11.964;2023-02-01T14:37:02;6.40;;;5.80;;
46931;SDS011;32670;51.464;11.964;2023-02-01T14:39:49;7.43;;;6.63;;
46931;SDS011;32670;51.464;11.964;2023-02-01T14:42:38;6.83;;;6.13;;
46931;SDS011;32670;51.464;11.964;2023-02-01T14:47:47;6.70;;;6.10;;
46931;SDS011;32670;51.464;11.964;2023-02-01T15:00:53;6.90;;;6.20;;
46931;SDS011;32670;51.464;11.964;2023-02-01T15:06:12;6.47;;;5.87;;
46931;SDS011;32670;51.464;11.964;2023-02-01T15:09:07;7.00;;;6.30;;
46931;SDS011;32670;51.464;11.964;2023-02-01T15:12:05;6.93;;;6.23;;
46931;SDS011;32670;51.464;11.964;2023-02-01T15:14:35;7.10;;;6.40;;
46931;SDS011;32670;51.464;11.964;2023-02-01T15:17:15;7.17;;;6.57;;
46931;SDS011;32670;51.464;11.964;2023-02-01T15:20:00;6.70;;;6.10;;
46931;SDS011;32670;51.464;11.964;2023-02-01T15:22:28;6.97;;;6.27;;
46931;SDS011;32670;51.464;11.964;2023-02-01T15:24:56;7.37;;;6.63;;
46931;SDS011;32670;51.464;11.964;2023-02-01T15:27:26;6.50;;;5.90;;
46931;SDS011;32670;51.464;11.964;2023-02-01T15:29:52;7.57;;;6.73;;
46931;SDS011;32670;51.464;11.964;2023-02-01T15:32:29;6.97;;;5.90;;
46931;SDS011;32670;51.464;11.964;2023-02-01T15:35:01;6.60;;;5.97;;
46931;SDS011;32670;51.464;11.964;2023-02-01T15:37:27;6.40;;;5.90;;
46931;SDS011;32670;51.464;11.964;2023-02-01T15:42:34;6.93;;;6.20;;
46931;SDS011;32670;51.464;11.964;2023-02-01T15:45:15;6.67;;;6.10;;
46931;SDS011;32670;51.464;11.964;2023-02-01T15:47:45;7.23;;;6.53;;
46931;SDS011;32670;51.464;11.964;2023-02-01T15:50:15;6.80;;;6.20;;
46931;SDS011;32670;51.464;11.964;2023-02-01T15:52:41;6.70;;;6.10;;
46931;SDS011;32670;51.464;11.964;2023-02-01T15:55:08;6.17;;;5.67;;
46931;SDS011;32670;51.464;11.964;2023-02-01T15:57:44;7.23;;;6.53;;
46931;SDS011;32670;51.464;11.964;2023-02-01T16:03:04;5.90;;;5.40;;
46931;SDS011;32670;51.464;11.964;2023-02-01T16:08:05;6.07;;;5.47;;
46931;SDS011;32670;51.464;11.964;2023-02-01T16:10:40;5.90;;;5.40;;
46931;SDS011;32670;51.464;11.964;2023-02-01T16:13:11;5.67;;;5.13;;
46931;SDS011;32670;51.464;11.964;2023-02-01T16:15:37;6.23;;;5.63;;
46931;SDS011;32670;51.464;11.964;2023-02-01T16:18:03;5.70;;;5.20;;
46931;SDS011;32670;51.464;11.964;2023-02-01T16:20:30;5.70;;;5.20;;
46931;SDS011;32670;51.464;11.964;2023-02-01T16:22:55;5.80;;;5.30;;
46931;SDS011;32670;51.464;11.964;2023-02-01T16:25:21;5.40;;;4.90;;
46931;SDS011;32670;51.464;11.964;2023-02-01T16:27:46;5.83;;;5.33;;
46931;SDS011;32670;51.464;11.964;2023-02-01T16:30:13;6.40;;;5.30;;
46931;SDS011;32670;51.464;11.964;2023-02-01T16:32:38;5.23;;;4.73;;
46931;SDS011;32670;51.464;11.964;2023-02-01T16:35:04;5.50;;;5.03;;
46931;SDS011;32670;51.464;11.964;2023-02-01T16:37:38;5.57;;;5.10;;
46931;SDS011;32670;51.464;11.964;2023-02-01T16:40:04;5.63;;;5.00;;
46931;SDS011;32670;51.464;11.964;2023-02-01T16:42:29;5.50;;;5.00;;
46931;SDS011;32670;51.464;11.964;2023-02-01T16:44:55;5.60;;;5.10;;
46931;SDS011;32670;51.464;11.964;2023-02-01T16:47:21;5.30;;;4.90;;
46931;SDS011;32670;51.464;11.964;2023-02-01T16:49:47;5.00;;;4.60;;
46931;SDS011;32670;51.464;11.964;2023-02-01T16:52:13;5.27;;;4.80;;
46931;SDS011;32670;51.464;11.964;2023-02-01T16:54:44;5.73;;;5.13;;
46931;SDS011;32670;51.464;11.964;2023-02-01T16:57:14;5.27;;;4.77;;
46931;SDS011;32670;51.464;11.964;2023-02-01T16:59:41;4.97;;;4.57;;
46931;SDS011;32670;51.464;11.964;2023-02-01T17:02:12;5.10;;;4.70;;